Terminal Aerodrome Forecast
Issued by NWS Charleston, WV

Current Version | Previous Version | Graphics & Text | Print | Product List | Glossary On
Versions: 1 2 3 4 5 6 7 8 9 10 11 12 13 14 15 16 17 18 19 20 21 22 23 24 25 26 27 28 29
000
FTUS41 KRLX 041120
TAFHTS
TAF
KHTS 041120Z 0412/0512 34003KT 2SM BR BKN004 OVC010
     FM041300 VRB03KT 6SM BR BKN009
     FM041500 VRB03KT P6SM BKN030
     FM042100 30004KT P6SM SCT040
     FM050500 00000KT 5SM BR SCT200
     FM050900 00000KT 3SM BR SCT045=

USA.gov is the U.S. government's official web portal to all federal, state and local government web resources and services.